Shobdon, United Kingdom

1:28 AM BST on August 21, 2014 (GMT +0100)
ICOUNTYO5 | Change Station
CLOSE
Current Station
Personal Weather Station
Location: Leominster, COUNTY OF HEREFORDSHIRE
Elevation: 255 ft
Nearby Weather Stations

Elev 255 ft 52.26 °N, 2.75 °W | Updated 28 minutes ago

Clear
Clear
43.3 °F
Feels Like 43 °F
N
0.0
Wind Variable Wind from South
Gusts 0.0 mph

Today
High -- | Low -- °F
--% Chance of Precip.
Yesterday
High -- | Low -- °F
Precip. -- in
6:04 AM 8:23 PM
Waning Crescent, 18% visible
Pressure 30.04 in
Visibility -9999.0 miles
Clouds
Windchill 43 °F
Dew Point 39 °F
Humidity 87%
Rainfall 0.00 in
Snow Depth Not available.
UV Not available.
Pollen Not available.
Air Quality Not available.
Flu Activity Not available.
METAR EGBB 210020Z 25004KT CAVOK 10/07 Q1017

More Conditions Fewer Conditions

Pressure 30.04 in
Visibility -9999.0 miles
Clouds
Windchill 43 °F
Dew Point 39 °F
Humidity 87%
Rainfall 0.00 in
Snow Depth Not available.
UV Not available.
Pollen Not available.
Air Quality Not available.
Flu Activity Not available.
METAR EGBB 210020Z 25004KT CAVOK 10/07 Q1017

More Conditions Fewer Conditions

10-Day Weather Forecast

Almanac

Astronomy

Aug. 21, 2014 Rise Set
Actual Time 6:04 AM BST 8:23 PM BST
Civil Twilight 5:27 AM BST 9:00 PM BST
Nautical Twilight 4:39 AM BST 9:47 PM BST
Astronomical Twilight 3:44 AM BST 10:42 PM BST
Moon 2:09 AM BST 5:54 PM BST
Length of Visible Light 15h 33m
Length of Day
14h 19m
Tomorrow will be 3m 48s shorter.
Waning Crescent, 18% of the Moon is Illuminated
Aug 20
Waning Crescent
Aug 25
New
Sep 2
First Quarter
Sep 8
Full
Sep 15
Last Quarter

Yesterday's Extremes

Country Highs Country Lows

Community

WunderPhotos

Upload Photos

1,745,807 photos uploaded!

WunderBlogs® & News

Nearby

Snow Depth

Not available.

Earthquake Activity

City Distance Mag. Time & Date
No recent earthquake activity has been reported nearby.
Minimum magnitude displayed is 2.5.

Coastal Water Temperatures

Place Temperature
No Stations Reporting

Nearby Weather Stations